sensor_id;sensor_type;location;lat;lon;timestamp;P1;durP1;ratioP1;P2;durP2;ratioP2
47764;SDS011;33529;49.242;8.670;2022-11-25T00:01:55;6.35;;;3.45;;
47764;SDS011;33529;49.242;8.670;2022-11-25T00:04:22;5.82;;;3.15;;
47764;SDS011;33529;49.242;8.670;2022-11-25T00:06:50;7.55;;;3.75;;
47764;SDS011;33529;49.242;8.670;2022-11-25T00:09:16;5.28;;;2.85;;
47764;SDS011;33529;49.242;8.670;2022-11-25T00:11:43;5.07;;;2.70;;
47764;SDS011;33529;49.242;8.670;2022-11-25T00:14:11;5.45;;;2.90;;
47764;SDS011;33529;49.242;8.670;2022-11-25T00:16:40;5.60;;;3.45;;
47764;SDS011;33529;49.242;8.670;2022-11-25T00:19:13;4.65;;;2.42;;
47764;SDS011;33529;49.242;8.670;2022-11-25T00:21:41;4.25;;;2.88;;
47764;SDS011;33529;49.242;8.670;2022-11-25T00:24:08;5.57;;;2.85;;
47764;SDS011;33529;49.242;8.670;2022-11-25T00:26:38;6.47;;;3.47;;
47764;SDS011;33529;49.242;8.670;2022-11-25T00:29:06;5.43;;;3.53;;
47764;SDS011;33529;49.242;8.670;2022-11-25T00:31:36;6.70;;;4.15;;
47764;SDS011;33529;49.242;8.670;2022-11-25T00:34:04;5.00;;;3.78;;
47764;SDS011;33529;49.242;8.670;2022-11-25T00:36:34;7.57;;;4.40;;
47764;SDS011;33529;49.242;8.670;2022-11-25T00:39:15;6.85;;;4.38;;
47764;SDS011;33529;49.242;8.670;2022-11-25T00:41:43;6.28;;;3.78;;
47764;SDS011;33529;49.242;8.670;2022-11-25T00:44:30;6.97;;;4.05;;
47764;SDS011;33529;49.242;8.670;2022-11-25T00:47:15;9.70;;;4.15;;
47764;SDS011;33529;49.242;8.670;2022-11-25T00:49:44;11.00;;;4.00;;
47764;SDS011;33529;49.242;8.670;2022-11-25T00:52:19;6.25;;;3.92;;
47764;SDS011;33529;49.242;8.670;2022-11-25T00:54:49;5.72;;;3.65;;
47764;SDS011;33529;49.242;8.670;2022-11-25T00:57:18;10.07;;;4.75;;
47764;SDS011;33529;49.242;8.670;2022-11-25T00:59:47;5.35;;;4.05;;
47764;SDS011;33529;49.242;8.670;2022-11-25T01:02:15;7.50;;;5.00;;
47764;SDS011;33529;49.242;8.670;2022-11-25T01:04:43;10.77;;;5.78;;
47764;SDS011;33529;49.242;8.670;2022-11-25T01:07:13;6.72;;;4.68;;
47764;SDS011;33529;49.242;8.670;2022-11-25T01:09:40;8.82;;;4.50;;
47764;SDS011;33529;49.242;8.670;2022-11-25T01:12:07;7.72;;;4.50;;
47764;SDS011;33529;49.242;8.670;2022-11-25T01:14:34;6.57;;;4.32;;
47764;SDS011;33529;49.242;8.670;2022-11-25T01:17:02;7.88;;;3.83;;
47764;SDS011;33529;49.242;8.670;2022-11-25T01:19:31;7.72;;;3.80;;
47764;SDS011;33529;49.242;8.670;2022-11-25T01:21:58;5.38;;;4.03;;
47764;SDS011;33529;49.242;8.670;2022-11-25T01:24:25;5.47;;;4.03;;
47764;SDS011;33529;49.242;8.670;2022-11-25T01:26:53;5.80;;;3.72;;
47764;SDS011;33529;49.242;8.670;2022-11-25T01:29:21;5.45;;;3.40;;
47764;SDS011;33529;49.242;8.670;2022-11-25T01:31:48;6.57;;;4.13;;
47764;SDS011;33529;49.242;8.670;2022-11-25T01:34:19;6.53;;;4.30;;
47764;SDS011;33529;49.242;8.670;2022-11-25T01:36:48;6.47;;;3.85;;
47764;SDS011;33529;49.242;8.670;2022-11-25T01:39:16;7.57;;;4.22;;
47764;SDS011;33529;49.242;8.670;2022-11-25T01:41:55;6.47;;;3.50;;
47764;SDS011;33529;49.242;8.670;2022-11-25T01:44:25;6.40;;;3.80;;
47764;SDS011;33529;49.242;8.670;2022-11-25T01:46:55;6.05;;;3.75;;
47764;SDS011;33529;49.242;8.670;2022-11-25T01:49:35;5.60;;;3.85;;
47764;SDS011;33529;49.242;8.670;2022-11-25T01:52:08;7.03;;;4.53;;
47764;SDS011;33529;49.242;8.670;2022-11-25T01:55:06;6.82;;;4.07;;
47764;SDS011;33529;49.242;8.670;2022-11-25T01:57:54;6.25;;;4.00;;
47764;SDS011;33529;49.242;8.670;2022-11-25T02:00:26;5.78;;;4.13;;
47764;SDS011;33529;49.242;8.670;2022-11-25T02:02:54;6.07;;;4.18;;
47764;SDS011;33529;49.242;8.670;2022-11-25T02:05:45;7.32;;;4.10;;
47764;SDS011;33529;49.242;8.670;2022-11-25T02:08:15;7.75;;;4.05;;
47764;SDS011;33529;49.242;8.670;2022-11-25T02:10:44;7.80;;;3.95;;
47764;SDS011;33529;49.242;8.670;2022-11-25T02:13:11;6.30;;;4.00;;
47764;SDS011;33529;49.242;8.670;2022-11-25T02:15:38;6.85;;;3.85;;
47764;SDS011;33529;49.242;8.670;2022-11-25T02:18:05;11.27;;;4.80;;
47764;SDS011;33529;49.242;8.670;2022-11-25T02:20:33;6.90;;;4.07;;
47764;SDS011;33529;49.242;8.670;2022-11-25T02:25:44;5.63;;;4.10;;
47764;SDS011;33529;49.242;8.670;2022-11-25T02:28:21;7.95;;;4.75;;
47764;SDS011;33529;49.242;8.670;2022-11-25T02:30:50;8.73;;;4.22;;
47764;SDS011;33529;49.242;8.670;2022-11-25T02:33:18;8.90;;;3.72;;
47764;SDS011;33529;49.242;8.670;2022-11-25T02:35:47;6.50;;;4.22;;
47764;SDS011;33529;49.242;8.670;2022-11-25T02:43:37;6.57;;;3.92;;
47764;SDS011;33529;49.242;8.670;2022-11-25T02:46:05;7.93;;;4.60;;
47764;SDS011;33529;49.242;8.670;2022-11-25T02:48:36;7.05;;;3.90;;
47764;SDS011;33529;49.242;8.670;2022-11-25T02:51:25;8.35;;;4.00;;
47764;SDS011;33529;49.242;8.670;2022-11-25T02:53:54;6.85;;;4.32;;
47764;SDS011;33529;49.242;8.670;2022-11-25T02:56:24;8.18;;;4.18;;
47764;SDS011;33529;49.242;8.670;2022-11-25T02:58:53;7.15;;;4.00;;
47764;SDS011;33529;49.242;8.670;2022-11-25T03:01:23;8.60;;;4.63;;
47764;SDS011;33529;49.242;8.670;2022-11-25T03:03:50;8.45;;;4.07;;
47764;SDS011;33529;49.242;8.670;2022-11-25T03:06:20;10.80;;;4.05;;
47764;SDS011;33529;49.242;8.670;2022-11-25T03:08:47;5.55;;;3.65;;
47764;SDS011;33529;49.242;8.670;2022-11-25T03:11:14;7.40;;;4.30;;
47764;SDS011;33529;49.242;8.670;2022-11-25T03:13:41;6.78;;;4.00;;
47764;SDS011;33529;49.242;8.670;2022-11-25T03:16:08;6.57;;;4.05;;
47764;SDS011;33529;49.242;8.670;2022-11-25T03:18:35;6.72;;;3.78;;
47764;SDS011;33529;49.242;8.670;2022-11-25T03:21:03;5.63;;;3.00;;
47764;SDS011;33529;49.242;8.670;2022-11-25T03:23:30;7.93;;;4.50;;
47764;SDS011;33529;49.242;8.670;2022-11-25T03:25:56;5.80;;;3.85;;
47764;SDS011;33529;49.242;8.670;2022-11-25T03:28:23;8.32;;;4.32;;
47764;SDS011;33529;49.242;8.670;2022-11-25T03:30:50;5.75;;;3.22;;
47764;SDS011;33529;49.242;8.670;2022-11-25T03:33:17;7.72;;;3.92;;
47764;SDS011;33529;49.242;8.670;2022-11-25T03:35:46;4.78;;;3.67;;
47764;SDS011;33529;49.242;8.670;2022-11-25T03:38:13;6.50;;;3.42;;
47764;SDS011;33529;49.242;8.670;2022-11-25T03:40:40;5.72;;;3.50;;
47764;SDS011;33529;49.242;8.670;2022-11-25T03:43:09;5.68;;;3.13;;
47764;SDS011;33529;49.242;8.670;2022-11-25T03:45:38;4.32;;;2.80;;
47764;SDS011;33529;49.242;8.670;2022-11-25T03:48:07;5.68;;;2.92;;
47764;SDS011;33529;49.242;8.670;2022-11-25T03:50:35;6.32;;;3.55;;
47764;SDS011;33529;49.242;8.670;2022-11-25T03:53:02;5.32;;;3.13;;
47764;SDS011;33529;49.242;8.670;2022-11-25T03:55:29;5.50;;;3.55;;
47764;SDS011;33529;49.242;8.670;2022-11-25T03:57:57;5.55;;;3.58;;
47764;SDS011;33529;49.242;8.670;2022-11-25T04:00:24;4.65;;;3.10;;
47764;SDS011;33529;49.242;8.670;2022-11-25T04:02:59;5.55;;;3.50;;
47764;SDS011;33529;49.242;8.670;2022-11-25T04:05:29;6.60;;;3.80;;
47764;SDS011;33529;49.242;8.670;2022-11-25T04:07:59;7.27;;;4.67;;
47764;SDS011;33529;49.242;8.670;2022-11-25T04:10:31;5.97;;;4.03;;
47764;SDS011;33529;49.242;8.670;2022-11-25T04:12:58;5.07;;;3.45;;
47764;SDS011;33529;49.242;8.670;2022-11-25T04:15:32;5.10;;;3.03;;
47764;SDS011;33529;49.242;8.670;2022-11-25T04:18:00;5.43;;;3.08;;
47764;SDS011;33529;49.242;8.670;2022-11-25T04:20:29;8.02;;;4.32;;
47764;SDS011;33529;49.242;8.670;2022-11-25T04:23:01;5.00;;;3.28;;
47764;SDS011;33529;49.242;8.670;2022-11-25T04:25:30;4.75;;;3.40;;
47764;SDS011;33529;49.242;8.670;2022-11-25T04:27:57;6.88;;;3.58;;
47764;SDS011;33529;49.242;8.670;2022-11-25T04:30:30;6.13;;;3.97;;
47764;SDS011;33529;49.242;8.670;2022-11-25T04:32:59;5.25;;;3.30;;
47764;SDS011;33529;49.242;8.670;2022-11-25T04:35:27;8.10;;;4.75;;
47764;SDS011;33529;49.242;8.670;2022-11-25T04:37:55;5.10;;;3.28;;
47764;SDS011;33529;49.242;8.670;2022-11-25T04:40:23;4.85;;;3.45;;
47764;SDS011;33529;49.242;8.670;2022-11-25T04:43:01;4.30;;;2.90;;
47764;SDS011;33529;49.242;8.670;2022-11-25T04:45:39;4.93;;;3.20;;
47764;SDS011;33529;49.242;8.670;2022-11-25T04:48:27;4.78;;;3.33;;
47764;SDS011;33529;49.242;8.670;2022-11-25T04:50:54;5.68;;;3.47;;
47764;SDS011;33529;49.242;8.670;2022-11-25T04:53:22;4.75;;;3.15;;
47764;SDS011;33529;49.242;8.670;2022-11-25T04:55:49;4.60;;;3.13;;
47764;SDS011;33529;49.242;8.670;2022-11-25T04:58:17;7.05;;;3.42;;
47764;SDS011;33529;49.242;8.670;2022-11-25T05:01:04;5.05;;;3.10;;
47764;SDS011;33529;49.242;8.670;2022-11-25T05:03:32;4.03;;;2.95;;
47764;SDS011;33529;49.242;8.670;2022-11-25T05:06:03;4.40;;;3.03;;
47764;SDS011;33529;49.242;8.670;2022-11-25T05:08:36;4.60;;;2.85;;
47764;SDS011;33529;49.242;8.670;2022-11-25T05:11:03;4.45;;;3.60;;
47764;SDS011;33529;49.242;8.670;2022-11-25T05:13:30;5.97;;;3.63;;
47764;SDS011;33529;49.242;8.670;2022-11-25T05:15:58;6.97;;;3.15;;
47764;SDS011;33529;49.242;8.670;2022-11-25T05:18:26;4.95;;;2.85;;
47764;SDS011;33529;49.242;8.670;2022-11-25T05:20:53;5.80;;;3.40;;
47764;SDS011;33529;49.242;8.670;2022-11-25T05:23:20;5.55;;;3.35;;
47764;SDS011;33529;49.242;8.670;2022-11-25T05:25:48;4.85;;;3.33;;
47764;SDS011;33529;49.242;8.670;2022-11-25T05:28:29;5.80;;;3.42;;
47764;SDS011;33529;49.242;8.670;2022-11-25T05:30:57;5.53;;;3.50;;
47764;SDS011;33529;49.242;8.670;2022-11-25T05:33:24;6.22;;;3.85;;
47764;SDS011;33529;49.242;8.670;2022-11-25T05:35:52;5.32;;;3.60;;
47764;SDS011;33529;49.242;8.670;2022-11-25T05:38:21;6.82;;;3.42;;
47764;SDS011;33529;49.242;8.670;2022-11-25T05:40:48;5.20;;;3.58;;
47764;SDS011;33529;49.242;8.670;2022-11-25T05:43:16;6.72;;;3.92;;
47764;SDS011;33529;49.242;8.670;2022-11-25T05:45:43;6.03;;;3.65;;
47764;SDS011;33529;49.242;8.670;2022-11-25T05:48:12;7.93;;;3.92;;
47764;SDS011;33529;49.242;8.670;2022-11-25T05:50:40;6.63;;;2.92;;
47764;SDS011;33529;49.242;8.670;2022-11-25T05:53:14;6.18;;;3.58;;
47764;SDS011;33529;49.242;8.670;2022-11-25T05:55:43;7.53;;;3.97;;
47764;SDS011;33529;49.242;8.670;2022-11-25T05:58:27;5.63;;;3.83;;
47764;SDS011;33529;49.242;8.670;2022-11-25T06:00:57;6.47;;;3.88;;
47764;SDS011;33529;49.242;8.670;2022-11-25T06:03:28;4.00;;;2.95;;
47764;SDS011;33529;49.242;8.670;2022-11-25T06:05:56;3.75;;;2.97;;
47764;SDS011;33529;49.242;8.670;2022-11-25T06:08:24;4.90;;;3.58;;
47764;SDS011;33529;49.242;8.670;2022-11-25T06:10:51;6.30;;;3.80;;
47764;SDS011;33529;49.242;8.670;2022-11-25T06:13:18;5.05;;;3.33;;
47764;SDS011;33529;49.242;8.670;2022-11-25T06:15:46;4.97;;;3.30;;
47764;SDS011;33529;49.242;8.670;2022-11-25T06:18:16;4.55;;;2.97;;
47764;SDS011;33529;49.242;8.670;2022-11-25T06:20:44;4.47;;;3.08;;
47764;SDS011;33529;49.242;8.670;2022-11-25T06:23:20;5.75;;;3.28;;
47764;SDS011;33529;49.242;8.670;2022-11-25T06:25:47;7.18;;;3.45;;
47764;SDS011;33529;49.242;8.670;2022-11-25T06:28:14;6.57;;;3.17;;
47764;SDS011;33529;49.242;8.670;2022-11-25T06:33:20;6.28;;;3.70;;
47764;SDS011;33529;49.242;8.670;2022-11-25T06:35:49;4.75;;;3.25;;
47764;SDS011;33529;49.242;8.670;2022-11-25T06:38:18;5.05;;;3.30;;
47764;SDS011;33529;49.242;8.670;2022-11-25T06:40:45;6.03;;;3.35;;
47764;SDS011;33529;49.242;8.670;2022-11-25T06:43:12;7.00;;;3.65;;
47764;SDS011;33529;49.242;8.670;2022-11-25T06:45:39;4.80;;;3.15;;
47764;SDS011;33529;49.242;8.670;2022-11-25T06:48:06;6.53;;;3.47;;
47764;SDS011;33529;49.242;8.670;2022-11-25T06:50:33;5.55;;;3.10;;
47764;SDS011;33529;49.242;8.670;2022-11-25T06:53:00;6.57;;;3.28;;
47764;SDS011;33529;49.242;8.670;2022-11-25T06:55:27;5.53;;;3.10;;
47764;SDS011;33529;49.242;8.670;2022-11-25T06:57:54;5.35;;;3.35;;
47764;SDS011;33529;49.242;8.670;2022-11-25T07:00:41;6.00;;;3.03;;
47764;SDS011;33529;49.242;8.670;2022-11-25T07:03:07;5.68;;;3.13;;
47764;SDS011;33529;49.242;8.670;2022-11-25T07:05:34;5.22;;;3.28;;
47764;SDS011;33529;49.242;8.670;2022-11-25T07:08:01;5.60;;;3.38;;
47764;SDS011;33529;49.242;8.670;2022-11-25T07:10:28;7.60;;;4.03;;
47764;SDS011;33529;49.242;8.670;2022-11-25T07:12:55;4.78;;;3.33;;
47764;SDS011;33529;49.242;8.670;2022-11-25T07:15:22;4.68;;;3.17;;
47764;SDS011;33529;49.242;8.670;2022-11-25T07:17:49;6.10;;;4.13;;
47764;SDS011;33529;49.242;8.670;2022-11-25T07:20:16;7.35;;;5.20;;
47764;SDS011;33529;49.242;8.670;2022-11-25T07:22:43;5.72;;;4.40;;
47764;SDS011;33529;49.242;8.670;2022-11-25T07:25:10;7.97;;;6.53;;
47764;SDS011;33529;49.242;8.670;2022-11-25T07:27:37;10.50;;;8.32;;
47764;SDS011;33529;49.242;8.670;2022-11-25T07:30:04;7.85;;;6.03;;
47764;SDS011;33529;49.242;8.670;2022-11-25T07:32:51;7.10;;;4.53;;
47764;SDS011;33529;49.242;8.670;2022-11-25T07:35:18;5.07;;;4.10;;
47764;SDS011;33529;49.242;8.670;2022-11-25T07:37:45;5.13;;;4.22;;
47764;SDS011;33529;49.242;8.670;2022-11-25T07:40:12;6.88;;;3.75;;
47764;SDS011;33529;49.242;8.670;2022-11-25T07:42:39;5.18;;;3.13;;
47764;SDS011;33529;49.242;8.670;2022-11-25T07:45:08;6.97;;;4.15;;
47764;SDS011;33529;49.242;8.670;2022-11-25T07:47:40;5.45;;;3.00;;
47764;SDS011;33529;49.242;8.670;2022-11-25T07:50:07;8.82;;;4.18;;
47764;SDS011;33529;49.242;8.670;2022-11-25T07:52:36;6.05;;;4.07;;
47764;SDS011;33529;49.242;8.670;2022-11-25T07:55:04;5.38;;;3.22;;
47764;SDS011;33529;49.242;8.670;2022-11-25T07:57:31;4.82;;;2.60;;
47764;SDS011;33529;49.242;8.670;2022-11-25T07:59:58;5.28;;;3.55;;
47764;SDS011;33529;49.242;8.670;2022-11-25T08:02:25;5.63;;;3.53;;
47764;SDS011;33529;49.242;8.670;2022-11-25T08:04:52;6.95;;;4.03;;
47764;SDS011;33529;49.242;8.670;2022-11-25T08:07:19;5.22;;;3.35;;
47764;SDS011;33529;49.242;8.670;2022-11-25T08:09:46;5.55;;;3.33;;
47764;SDS011;33529;49.242;8.670;2022-11-25T08:12:13;4.75;;;3.50;;
47764;SDS011;33529;49.242;8.670;2022-11-25T08:14:40;7.20;;;4.03;;
47764;SDS011;33529;49.242;8.670;2022-11-25T08:17:07;6.70;;;4.38;;
47764;SDS011;33529;49.242;8.670;2022-11-25T08:19:34;5.90;;;3.63;;
47764;SDS011;33529;49.242;8.670;2022-11-25T08:22:02;8.30;;;4.20;;
47764;SDS011;33529;49.242;8.670;2022-11-25T08:24:29;7.45;;;4.35;;
47764;SDS011;33529;49.242;8.670;2022-11-25T08:26:56;6.57;;;4.22;;
47764;SDS011;33529;49.242;8.670;2022-11-25T08:29:26;7.65;;;4.50;;
47764;SDS011;33529;49.242;8.670;2022-11-25T08:31:53;7.00;;;4.35;;
47764;SDS011;33529;49.242;8.670;2022-11-25T08:34:21;6.60;;;4.18;;
47764;SDS011;33529;49.242;8.670;2022-11-25T08:36:54;5.60;;;3.97;;
47764;SDS011;33529;49.242;8.670;2022-11-25T08:39:21;5.28;;;3.50;;
47764;SDS011;33529;49.242;8.670;2022-11-25T08:42:08;8.60;;;3.60;;
47764;SDS011;33529;49.242;8.670;2022-11-25T08:44:35;4.85;;;3.20;;
47764;SDS011;33529;49.242;8.670;2022-11-25T08:47:02;4.15;;;3.08;;
47764;SDS011;33529;49.242;8.670;2022-11-25T08:49:29;5.25;;;3.15;;
47764;SDS011;33529;49.242;8.670;2022-11-25T08:52:04;5.22;;;3.28;;
47764;SDS011;33529;49.242;8.670;2022-11-25T08:54:31;4.25;;;3.00;;
47764;SDS011;33529;49.242;8.670;2022-11-25T08:56:58;5.70;;;3.28;;
47764;SDS011;33529;49.242;8.670;2022-11-25T08:59:25;6.32;;;3.50;;
47764;SDS011;33529;49.242;8.670;2022-11-25T09:01:54;8.38;;;4.30;;
47764;SDS011;33529;49.242;8.670;2022-11-25T09:04:21;9.77;;;5.57;;
47764;SDS011;33529;49.242;8.670;2022-11-25T09:06:48;4.88;;;2.55;;
47764;SDS011;33529;49.242;8.670;2022-11-25T09:09:15;4.90;;;2.70;;
47764;SDS011;33529;49.242;8.670;2022-11-25T09:11:42;10.25;;;7.47;;
47764;SDS011;33529;49.242;8.670;2022-11-25T09:14:09;7.53;;;5.53;;
47764;SDS011;33529;49.242;8.670;2022-11-25T09:16:36;4.50;;;3.10;;
47764;SDS011;33529;49.242;8.670;2022-11-25T09:19:03;4.65;;;2.55;;
47764;SDS011;33529;49.242;8.670;2022-11-25T09:21:30;5.85;;;3.45;;
47764;SDS011;33529;49.242;8.670;2022-11-25T09:23:57;5.47;;;3.38;;
47764;SDS011;33529;49.242;8.670;2022-11-25T09:26:24;4.20;;;2.00;;
47764;SDS011;33529;49.242;8.670;2022-11-25T09:28:54;11.63;;;10.52;;
47764;SDS011;33529;49.242;8.670;2022-11-25T09:31:21;4.10;;;2.28;;
47764;SDS011;33529;49.242;8.670;2022-11-25T09:33:49;5.00;;;3.55;;
47764;SDS011;33529;49.242;8.670;2022-11-25T09:36:16;4.97;;;2.38;;
47764;SDS011;33529;49.242;8.670;2022-11-25T09:38:44;4.22;;;2.63;;
47764;SDS011;33529;49.242;8.670;2022-11-25T09:47:27;2.92;;;2.10;;
47764;SDS011;33529;49.242;8.670;2022-11-25T09:50:08;3.75;;;1.98;;
47764;SDS011;33529;49.242;8.670;2022-11-25T09:55:57;3.10;;;1.90;;
47764;SDS011;33529;49.242;8.670;2022-11-25T09:58:31;2.53;;;1.50;;
47764;SDS011;33529;49.242;8.670;2022-11-25T10:03:40;2.38;;;1.60;;
47764;SDS011;33529;49.242;8.670;2022-11-25T10:08:56;4.38;;;2.00;;
47764;SDS011;33529;49.242;8.670;2022-11-25T10:22:31;3.53;;;1.92;;
47764;SDS011;33529;49.242;8.670;2022-11-25T10:25:05;5.63;;;2.20;;
47764;SDS011;33529;49.242;8.670;2022-11-25T10:27:43;3.58;;;1.70;;
47764;SDS011;33529;49.242;8.670;2022-11-25T10:30:16;4.15;;;1.63;;
47764;SDS011;33529;49.242;8.670;2022-11-25T10:32:53;4.38;;;2.13;;
47764;SDS011;33529;49.242;8.670;2022-11-25T10:37:59;3.83;;;1.98;;
47764;SDS011;33529;49.242;8.670;2022-11-25T10:40:29;4.50;;;1.88;;
47764;SDS011;33529;49.242;8.670;2022-11-25T10:42:56;3.72;;;2.05;;
47764;SDS011;33529;49.242;8.670;2022-11-25T10:45:27;2.90;;;1.60;;
47764;SDS011;33529;49.242;8.670;2022-11-25T10:48:42;4.15;;;2.10;;
47764;SDS011;33529;49.242;8.670;2022-11-25T10:51:32;3.17;;;1.95;;
47764;SDS011;33529;49.242;8.670;2022-11-25T10:56:44;2.50;;;1.52;;
47764;SDS011;33529;49.242;8.670;2022-11-25T10:59:21;2.95;;;1.90;;
47764;SDS011;33529;49.242;8.670;2022-11-25T11:02:36;3.75;;;1.63;;
47764;SDS011;33529;49.242;8.670;2022-11-25T11:04:58;2.60;;;1.42;;
47764;SDS011;33529;49.242;8.670;2022-11-25T11:07:28;3.50;;;1.75;;
47764;SDS011;33529;49.242;8.670;2022-11-25T11:10:12;2.90;;;1.58;;
47764;SDS011;33529;49.242;8.670;2022-11-25T11:12:52;2.28;;;1.58;;
47764;SDS011;33529;49.242;8.670;2022-11-25T11:18:12;3.78;;;1.88;;
47764;SDS011;33529;49.242;8.670;2022-11-25T11:20:44;3.70;;;1.45;;
47764;SDS011;33529;49.242;8.670;2022-11-25T11:23:12;3.40;;;1.60;;
47764;SDS011;33529;49.242;8.670;2022-11-25T11:25:40;3.38;;;1.65;;
47764;SDS011;33529;49.242;8.670;2022-11-25T11:44:44;2.83;;;1.67;;
47764;SDS011;33529;49.242;8.670;2022-11-25T11:53:10;4.68;;;2.17;;
47764;SDS011;33529;49.242;8.670;2022-11-25T12:01:54;4.55;;;2.05;;
47764;SDS011;33529;49.242;8.670;2022-11-25T12:04:39;3.90;;;1.95;;
47764;SDS011;33529;49.242;8.670;2022-11-25T12:07:17;4.15;;;2.08;;
47764;SDS011;33529;49.242;8.670;2022-11-25T12:10:23;4.90;;;1.80;;
47764;SDS011;33529;49.242;8.670;2022-11-25T12:15:59;4.20;;;2.00;;
47764;SDS011;33529;49.242;8.670;2022-11-25T12:18:44;3.05;;;1.85;;
47764;SDS011;33529;49.242;8.670;2022-11-25T12:21:36;5.80;;;2.50;;
47764;SDS011;33529;49.242;8.670;2022-11-25T12:26:57;2.90;;;2.10;;
47764;SDS011;33529;49.242;8.670;2022-11-25T12:29:44;3.95;;;2.53;;
47764;SDS011;33529;49.242;8.670;2022-11-25T12:35:04;4.53;;;3.05;;
47764;SDS011;33529;49.242;8.670;2022-11-25T12:37:43;3.63;;;2.17;;
47764;SDS011;33529;49.242;8.670;2022-11-25T12:40:17;5.22;;;2.40;;
47764;SDS011;33529;49.242;8.670;2022-11-25T12:42:49;3.65;;;2.15;;
47764;SDS011;33529;49.242;8.670;2022-11-25T12:45:21;4.10;;;2.25;;
47764;SDS011;33529;49.242;8.670;2022-11-25T12:47:51;3.75;;;2.17;;
47764;SDS011;33529;49.242;8.670;2022-11-25T12:50:22;3.70;;;2.10;;
47764;SDS011;33529;49.242;8.670;2022-11-25T12:55:39;5.28;;;2.72;;
47764;SDS011;33529;49.242;8.670;2022-11-25T13:01:18;4.65;;;2.75;;
47764;SDS011;33529;49.242;8.670;2022-11-25T13:04:02;4.68;;;2.85;;
47764;SDS011;33529;49.242;8.670;2022-11-25T13:15:40;3.78;;;2.58;;
47764;SDS011;33529;49.242;8.670;2022-11-25T13:18:19;4.50;;;2.40;;
47764;SDS011;33529;49.242;8.670;2022-11-25T13:20:50;4.18;;;2.22;;
47764;SDS011;33529;49.242;8.670;2022-11-25T13:26:32;5.68;;;2.70;;
47764;SDS011;33529;49.242;8.670;2022-11-25T13:28:58;4.18;;;2.60;;
47764;SDS011;33529;49.242;8.670;2022-11-25T13:31:33;3.75;;;2.10;;
47764;SDS011;33529;49.242;8.670;2022-11-25T13:34:31;4.45;;;2.25;;
47764;SDS011;33529;49.242;8.670;2022-11-25T13:37:01;3.38;;;1.83;;
47764;SDS011;33529;49.242;8.670;2022-11-25T13:42:55;5.60;;;3.10;;
47764;SDS011;33529;49.242;8.670;2022-11-25T13:45:34;3.00;;;2.10;;
47764;SDS011;33529;49.242;8.670;2022-11-25T13:50:40;3.78;;;2.53;;
47764;SDS011;33529;49.242;8.670;2022-11-25T13:53:33;4.95;;;2.33;;
47764;SDS011;33529;49.242;8.670;2022-11-25T14:02:22;3.13;;;2.30;;
47764;SDS011;33529;49.242;8.670;2022-11-25T14:04:47;4.82;;;2.63;;
47764;SDS011;33529;49.242;8.670;2022-11-25T14:16:00;3.50;;;1.95;;
47764;SDS011;33529;49.242;8.670;2022-11-25T14:18:37;6.30;;;2.47;;
47764;SDS011;33529;49.242;8.670;2022-11-25T14:21:46;6.63;;;2.67;;
47764;SDS011;33529;49.242;8.670;2022-11-25T14:24:28;4.85;;;2.20;;
47764;SDS011;33529;49.242;8.670;2022-11-25T14:27:01;3.80;;;2.25;;
47764;SDS011;33529;49.242;8.670;2022-11-25T14:29:39;5.07;;;2.55;;
47764;SDS011;33529;49.242;8.670;2022-11-25T14:32:14;5.55;;;2.40;;
47764;SDS011;33529;49.242;8.670;2022-11-25T14:37:36;4.80;;;2.45;;
47764;SDS011;33529;49.242;8.670;2022-11-25T14:40:11;4.28;;;2.35;;
47764;SDS011;33529;49.242;8.670;2022-11-25T14:43:22;3.55;;;2.58;;
47764;SDS011;33529;49.242;8.670;2022-11-25T14:48:36;4.72;;;2.75;;
47764;SDS011;33529;49.242;8.670;2022-11-25T14:51:04;5.82;;;2.25;;
47764;SDS011;33529;49.242;8.670;2022-11-25T14:53:36;4.82;;;2.55;;
47764;SDS011;33529;49.242;8.670;2022-11-25T14:56:13;4.60;;;2.20;;
47764;SDS011;33529;49.242;8.670;2022-11-25T14:58:45;4.40;;;2.10;;
47764;SDS011;33529;49.242;8.670;2022-11-25T15:03:46;5.05;;;1.85;;
47764;SDS011;33529;49.242;8.670;2022-11-25T15:06:14;2.63;;;1.77;;
47764;SDS011;33529;49.242;8.670;2022-11-25T15:08:45;2.90;;;1.33;;
47764;SDS011;33529;49.242;8.670;2022-11-25T15:11:21;3.55;;;1.65;;
47764;SDS011;33529;49.242;8.670;2022-11-25T15:14:01;5.53;;;2.47;;
47764;SDS011;33529;49.242;8.670;2022-11-25T15:16:34;2.80;;;1.95;;
47764;SDS011;33529;49.242;8.670;2022-11-25T15:19:13;3.33;;;1.73;;
47764;SDS011;33529;49.242;8.670;2022-11-25T15:21:43;3.58;;;1.73;;
47764;SDS011;33529;49.242;8.670;2022-11-25T15:24:32;3.00;;;1.80;;
47764;SDS011;33529;49.242;8.670;2022-11-25T15:27:18;2.65;;;1.50;;
47764;SDS011;33529;49.242;8.670;2022-11-25T15:29:54;3.60;;;1.75;;
47764;SDS011;33529;49.242;8.670;2022-11-25T15:32:26;3.97;;;1.67;;
47764;SDS011;33529;49.242;8.670;2022-11-25T15:34:57;4.35;;;1.73;;
47764;SDS011;33529;49.242;8.670;2022-11-25T15:37:26;3.83;;;1.88;;
47764;SDS011;33529;49.242;8.670;2022-11-25T15:42:58;5.55;;;2.50;;
47764;SDS011;33529;49.242;8.670;2022-11-25T15:45:29;4.13;;;2.40;;
47764;SDS011;33529;49.242;8.670;2022-11-25T15:48:18;6.70;;;2.83;;
47764;SDS011;33529;49.242;8.670;2022-11-25T15:51:00;5.60;;;2.78;;
47764;SDS011;33529;49.242;8.670;2022-11-25T15:53:29;4.35;;;2.60;;
47764;SDS011;33529;49.242;8.670;2022-11-25T15:56:03;8.95;;;3.10;;
47764;SDS011;33529;49.242;8.670;2022-11-25T15:58:31;3.85;;;2.75;;
47764;SDS011;33529;49.242;8.670;2022-11-25T16:03:32;5.85;;;2.65;;
47764;SDS011;33529;49.242;8.670;2022-11-25T16:06:00;4.28;;;3.20;;
47764;SDS011;33529;49.242;8.670;2022-11-25T16:08:50;6.32;;;2.50;;
47764;SDS011;33529;49.242;8.670;2022-11-25T16:11:19;7.88;;;3.47;;
47764;SDS011;33529;49.242;8.670;2022-11-25T16:13:48;5.45;;;3.15;;
47764;SDS011;33529;49.242;8.670;2022-11-25T16:16:28;4.57;;;2.25;;
47764;SDS011;33529;49.242;8.670;2022-11-25T16:31:57;6.72;;;4.20;;
47764;SDS011;33529;49.242;8.670;2022-11-25T16:34:25;4.57;;;3.50;;
47764;SDS011;33529;49.242;8.670;2022-11-25T16:36:52;9.50;;;4.78;;
47764;SDS011;33529;49.242;8.670;2022-11-25T16:39:19;5.75;;;3.28;;
47764;SDS011;33529;49.242;8.670;2022-11-25T16:41:56;11.32;;;5.95;;
47764;SDS011;33529;49.242;8.670;2022-11-25T16:44:24;7.35;;;4.28;;
47764;SDS011;33529;49.242;8.670;2022-11-25T16:46:52;9.80;;;3.97;;
47764;SDS011;33529;49.242;8.670;2022-11-25T16:49:20;7.03;;;3.03;;
47764;SDS011;33529;49.242;8.670;2022-11-25T16:51:48;4.70;;;2.60;;
47764;SDS011;33529;49.242;8.670;2022-11-25T16:54:18;8.68;;;3.67;;
47764;SDS011;33529;49.242;8.670;2022-11-25T16:56:47;4.75;;;3.17;;
47764;SDS011;33529;49.242;8.670;2022-11-25T16:59:21;5.70;;;3.35;;
47764;SDS011;33529;49.242;8.670;2022-11-25T17:01:55;7.13;;;3.50;;
47764;SDS011;33529;49.242;8.670;2022-11-25T17:04:22;5.45;;;3.33;;
47764;SDS011;33529;49.242;8.670;2022-11-25T17:06:49;4.95;;;3.42;;
47764;SDS011;33529;49.242;8.670;2022-11-25T17:09:36;4.85;;;2.92;;
47764;SDS011;33529;49.242;8.670;2022-11-25T17:12:03;4.45;;;2.90;;
47764;SDS011;33529;49.242;8.670;2022-11-25T17:14:32;5.45;;;3.45;;
47764;SDS011;33529;49.242;8.670;2022-11-25T17:17:01;5.30;;;3.00;;
47764;SDS011;33529;49.242;8.670;2022-11-25T17:19:32;4.93;;;2.60;;
47764;SDS011;33529;49.242;8.670;2022-11-25T17:21:59;6.60;;;3.17;;
47764;SDS011;33529;49.242;8.670;2022-11-25T17:24:26;4.40;;;2.63;;
47764;SDS011;33529;49.242;8.670;2022-11-25T17:26:57;5.68;;;2.90;;
47764;SDS011;33529;49.242;8.670;2022-11-25T17:29:30;4.25;;;2.45;;
47764;SDS011;33529;49.242;8.670;2022-11-25T17:32:02;4.63;;;3.03;;
47764;SDS011;33529;49.242;8.670;2022-11-25T17:34:30;6.55;;;2.80;;
47764;SDS011;33529;49.242;8.670;2022-11-25T17:37:05;4.75;;;2.80;;
47764;SDS011;33529;49.242;8.670;2022-11-25T17:39:38;4.78;;;3.08;;
47764;SDS011;33529;49.242;8.670;2022-11-25T17:42:05;5.20;;;2.92;;